sensor_id;sensor_type;location;lat;lon;timestamp;temperature;humidity
70550;DHT22;58101;48.658;2.328;2023-01-13T00:00:57;10.80;99.90
70550;DHT22;58101;48.658;2.328;2023-01-13T00:03:23;10.80;99.90
70550;DHT22;58101;48.658;2.328;2023-01-13T00:05:49;10.90;99.90
70550;DHT22;58101;48.658;2.328;2023-01-13T00:08:14;10.80;99.90
70550;DHT22;58101;48.658;2.328;2023-01-13T00:10:40;10.80;99.90
70550;DHT22;58101;48.658;2.328;2023-01-13T00:13:06;10.80;99.90
70550;DHT22;58101;48.658;2.328;2023-01-13T00:15:32;10.90;99.90
70550;DHT22;58101;48.658;2.328;2023-01-13T00:17:57;10.90;99.90
70550;DHT22;58101;48.658;2.328;2023-01-13T00:20:23;10.90;99.90
70550;DHT22;58101;48.658;2.328;2023-01-13T00:22:49;10.90;99.90
70550;DHT22;58101;48.658;2.328;2023-01-13T00:25:14;10.90;99.90
70550;DHT22;58101;48.658;2.328;2023-01-13T00:27:40;10.90;99.90
70550;DHT22;58101;48.658;2.328;2023-01-13T00:30:07;10.90;99.90
70550;DHT22;58101;48.658;2.328;2023-01-13T00:32:33;10.90;99.90
70550;DHT22;58101;48.658;2.328;2023-01-13T00:34:58;10.90;99.90
70550;DHT22;58101;48.658;2.328;2023-01-13T00:37:24;11.00;99.90
70550;DHT22;58101;48.658;2.328;2023-01-13T00:39:51;11.00;99.90
70550;DHT22;58101;48.658;2.328;2023-01-13T00:42:17;11.00;99.90
70550;DHT22;58101;48.658;2.328;2023-01-13T00:45:01;11.00;99.90
70550;DHT22;58101;48.658;2.328;2023-01-13T00:47:28;11.00;99.90
70550;DHT22;58101;48.658;2.328;2023-01-13T00:49:53;11.00;99.90
70550;DHT22;58101;48.658;2.328;2023-01-13T00:52:19;11.00;99.90
70550;DHT22;58101;48.658;2.328;2023-01-13T00:54:45;11.00;99.90
70550;DHT22;58101;48.658;2.328;2023-01-13T00:57:10;11.00;99.90
70550;DHT22;58101;48.658;2.328;2023-01-13T00:59:36;11.00;99.90
70550;DHT22;58101;48.658;2.328;2023-01-13T01:02:01;10.90;99.90
70550;DHT22;58101;48.658;2.328;2023-01-13T01:04:27;10.90;99.90
70550;DHT22;58101;48.658;2.328;2023-01-13T01:06:53;10.70;99.90
70550;DHT22;58101;48.658;2.328;2023-01-13T01:09:18;10.70;99.90
70550;DHT22;58101;48.658;2.328;2023-01-13T01:11:44;10.60;99.90
70550;DHT22;58101;48.658;2.328;2023-01-13T01:14:11;10.50;99.90
70550;DHT22;58101;48.658;2.328;2023-01-13T01:16:38;10.50;99.90
70550;DHT22;58101;48.658;2.328;2023-01-13T01:19:04;10.50;99.90
70550;DHT22;58101;48.658;2.328;2023-01-13T01:21:31;10.50;99.90
70550;DHT22;58101;48.658;2.328;2023-01-13T01:23:59;10.40;99.90
70550;DHT22;58101;48.658;2.328;2023-01-13T01:26:26;10.40;99.90
70550;DHT22;58101;48.658;2.328;2023-01-13T01:28:53;10.20;99.90
70550;DHT22;58101;48.658;2.328;2023-01-13T01:31:23;10.40;99.90
70550;DHT22;58101;48.658;2.328;2023-01-13T01:33:49;10.30;99.90
70550;DHT22;58101;48.658;2.328;2023-01-13T01:36:17;10.30;99.90
70550;DHT22;58101;48.658;2.328;2023-01-13T01:38:43;10.30;99.90
70550;DHT22;58101;48.658;2.328;2023-01-13T01:41:15;10.20;99.90
70550;DHT22;58101;48.658;2.328;2023-01-13T01:46:26;10.30;99.90
70550;DHT22;58101;48.658;2.328;2023-01-13T01:48:54;10.20;99.90
70550;DHT22;58101;48.658;2.328;2023-01-13T01:51:22;10.10;99.90
70550;DHT22;58101;48.658;2.328;2023-01-13T01:53:47;10.10;99.90
70550;DHT22;58101;48.658;2.328;2023-01-13T01:56:15;10.10;99.90
70550;DHT22;58101;48.658;2.328;2023-01-13T01:58:47;10.10;99.90
70550;DHT22;58101;48.658;2.328;2023-01-13T02:01:16;10.00;99.90
70550;DHT22;58101;48.658;2.328;2023-01-13T02:03:44;10.00;99.90
70550;DHT22;58101;48.658;2.328;2023-01-13T02:06:11;10.00;99.90
70550;DHT22;58101;48.658;2.328;2023-01-13T02:08:39;10.00;99.90
70550;DHT22;58101;48.658;2.328;2023-01-13T02:11:06;9.90;99.90
70550;DHT22;58101;48.658;2.328;2023-01-13T02:13:52;9.90;99.90
70550;DHT22;58101;48.658;2.328;2023-01-13T02:16:21;10.00;99.90
70550;DHT22;58101;48.658;2.328;2023-01-13T02:22:14;9.90;99.90
70550;DHT22;58101;48.658;2.328;2023-01-13T02:31:09;9.80;99.90
70550;DHT22;58101;48.658;2.328;2023-01-13T02:34:10;9.80;99.90
70550;DHT22;58101;48.658;2.328;2023-01-13T02:36:48;9.80;99.90
70550;DHT22;58101;48.658;2.328;2023-01-13T02:39:56;9.80;99.90
70550;DHT22;58101;48.658;2.328;2023-01-13T02:42:33;9.80;99.90
70550;DHT22;58101;48.658;2.328;2023-01-13T02:45:31;9.80;99.90
70550;DHT22;58101;48.658;2.328;2023-01-13T02:47:59;9.70;99.90
70550;DHT22;58101;48.658;2.328;2023-01-13T02:50:35;9.70;99.90
70550;DHT22;58101;48.658;2.328;2023-01-13T02:53:09;9.70;99.90
70550;DHT22;58101;48.658;2.328;2023-01-13T02:55:43;9.80;99.90
70550;DHT22;58101;48.658;2.328;2023-01-13T02:58:14;9.70;99.90
70550;DHT22;58101;48.658;2.328;2023-01-13T03:00:40;9.70;99.90
70550;DHT22;58101;48.658;2.328;2023-01-13T03:03:07;9.60;99.90
70550;DHT22;58101;48.658;2.328;2023-01-13T03:05:33;9.60;99.90
70550;DHT22;58101;48.658;2.328;2023-01-13T03:21:32;9.60;99.90
70550;DHT22;58101;48.658;2.328;2023-01-13T03:26:35;9.60;99.90
70550;DHT22;58101;48.658;2.328;2023-01-13T03:29:20;9.60;99.90
70550;DHT22;58101;48.658;2.328;2023-01-13T03:32:02;9.60;99.90
70550;DHT22;58101;48.658;2.328;2023-01-13T03:34:38;9.60;99.90
70550;DHT22;58101;48.658;2.328;2023-01-13T03:37:06;9.60;99.90
70550;DHT22;58101;48.658;2.328;2023-01-13T03:39:37;9.60;99.90
70550;DHT22;58101;48.658;2.328;2023-01-13T03:42:10;9.70;99.90
70550;DHT22;58101;48.658;2.328;2023-01-13T03:44:48;9.60;99.90
70550;DHT22;58101;48.658;2.328;2023-01-13T03:47:51;9.60;99.90
70550;DHT22;58101;48.658;2.328;2023-01-13T03:50:27;9.60;99.90
70550;DHT22;58101;48.658;2.328;2023-01-13T03:52:59;9.60;99.90
70550;DHT22;58101;48.658;2.328;2023-01-13T03:55:29;9.70;99.90
70550;DHT22;58101;48.658;2.328;2023-01-13T04:01:23;9.70;99.90
70550;DHT22;58101;48.658;2.328;2023-01-13T04:04:05;9.70;99.90
70550;DHT22;58101;48.658;2.328;2023-01-13T04:09:16;9.80;99.90
70550;DHT22;58101;48.658;2.328;2023-01-13T04:11:45;9.90;99.90
70550;DHT22;58101;48.658;2.328;2023-01-13T04:14:15;9.60;99.90
70550;DHT22;58101;48.658;2.328;2023-01-13T04:16:43;9.80;99.90
70550;DHT22;58101;48.658;2.328;2023-01-13T04:19:09;9.90;99.90
70550;DHT22;58101;48.658;2.328;2023-01-13T04:21:34;9.70;99.90
70550;DHT22;58101;48.658;2.328;2023-01-13T04:24:00;9.70;99.90
70550;DHT22;58101;48.658;2.328;2023-01-13T04:26:26;9.70;99.90
70550;DHT22;58101;48.658;2.328;2023-01-13T04:28:51;9.70;99.90
70550;DHT22;58101;48.658;2.328;2023-01-13T04:31:19;9.70;99.90
70550;DHT22;58101;48.658;2.328;2023-01-13T04:33:45;9.60;99.90
70550;DHT22;58101;48.658;2.328;2023-01-13T04:36:10;9.80;99.90
70550;DHT22;58101;48.658;2.328;2023-01-13T04:38:36;9.70;99.90
70550;DHT22;58101;48.658;2.328;2023-01-13T04:41:01;9.50;99.90
70550;DHT22;58101;48.658;2.328;2023-01-13T04:43:27;9.40;99.90
70550;DHT22;58101;48.658;2.328;2023-01-13T04:45:53;9.40;99.90
70550;DHT22;58101;48.658;2.328;2023-01-13T04:48:18;9.40;99.90
70550;DHT22;58101;48.658;2.328;2023-01-13T04:50:44;9.30;99.90
70550;DHT22;58101;48.658;2.328;2023-01-13T04:53:10;9.30;99.90
70550;DHT22;58101;48.658;2.328;2023-01-13T04:55:35;9.30;99.90
70550;DHT22;58101;48.658;2.328;2023-01-13T04:58:10;9.20;99.90
70550;DHT22;58101;48.658;2.328;2023-01-13T05:00:36;9.10;99.90
70550;DHT22;58101;48.658;2.328;2023-01-13T05:03:02;9.20;99.90
70550;DHT22;58101;48.658;2.328;2023-01-13T05:05:29;9.10;99.90
70550;DHT22;58101;48.658;2.328;2023-01-13T05:07:55;9.20;99.90
70550;DHT22;58101;48.658;2.328;2023-01-13T05:10:21;9.10;99.90
70550;DHT22;58101;48.658;2.328;2023-01-13T05:12:46;9.10;99.90
70550;DHT22;58101;48.658;2.328;2023-01-13T05:15:30;9.00;99.90
70550;DHT22;58101;48.658;2.328;2023-01-13T05:18:15;9.00;99.90
70550;DHT22;58101;48.658;2.328;2023-01-13T05:20:41;9.00;99.90
70550;DHT22;58101;48.658;2.328;2023-01-13T05:23:07;9.00;99.90
70550;DHT22;58101;48.658;2.328;2023-01-13T05:25:51;9.00;99.90
70550;DHT22;58101;48.658;2.328;2023-01-13T05:28:17;9.00;99.90
70550;DHT22;58101;48.658;2.328;2023-01-13T05:30:45;8.90;99.90
70550;DHT22;58101;48.658;2.328;2023-01-13T05:33:13;9.00;99.90
70550;DHT22;58101;48.658;2.328;2023-01-13T05:35:41;8.90;99.90
70550;DHT22;58101;48.658;2.328;2023-01-13T05:38:07;8.90;99.90
70550;DHT22;58101;48.658;2.328;2023-01-13T05:40:33;8.80;99.90
70550;DHT22;58101;48.658;2.328;2023-01-13T05:43:19;8.80;99.90
70550;DHT22;58101;48.658;2.328;2023-01-13T05:45:47;8.70;99.90
70550;DHT22;58101;48.658;2.328;2023-01-13T05:48:13;8.70;99.90
70550;DHT22;58101;48.658;2.328;2023-01-13T05:50:39;8.70;99.90
70550;DHT22;58101;48.658;2.328;2023-01-13T05:53:05;8.60;99.90
70550;DHT22;58101;48.658;2.328;2023-01-13T05:55:33;8.60;99.90
70550;DHT22;58101;48.658;2.328;2023-01-13T05:57:59;8.60;99.90
70550;DHT22;58101;48.658;2.328;2023-01-13T06:00:24;8.60;99.90
70550;DHT22;58101;48.658;2.328;2023-01-13T06:02:50;8.60;99.90
70550;DHT22;58101;48.658;2.328;2023-01-13T06:05:16;8.60;99.90
70550;DHT22;58101;48.658;2.328;2023-01-13T06:07:42;8.50;99.90
70550;DHT22;58101;48.658;2.328;2023-01-13T06:10:08;8.50;99.90
70550;DHT22;58101;48.658;2.328;2023-01-13T06:12:34;8.40;99.90
70550;DHT22;58101;48.658;2.328;2023-01-13T06:14:59;8.40;99.90
70550;DHT22;58101;48.658;2.328;2023-01-13T06:17:25;8.40;99.90
70550;DHT22;58101;48.658;2.328;2023-01-13T06:19:51;8.40;99.90
70550;DHT22;58101;48.658;2.328;2023-01-13T06:22:17;8.30;99.90
70550;DHT22;58101;48.658;2.328;2023-01-13T06:24:46;8.40;99.90
70550;DHT22;58101;48.658;2.328;2023-01-13T06:27:13;8.30;99.90
70550;DHT22;58101;48.658;2.328;2023-01-13T06:29:40;8.50;99.90
70550;DHT22;58101;48.658;2.328;2023-01-13T06:32:08;8.30;99.90
70550;DHT22;58101;48.658;2.328;2023-01-13T06:34:37;8.20;99.90
70550;DHT22;58101;48.658;2.328;2023-01-13T06:37:04;8.20;99.90
70550;DHT22;58101;48.658;2.328;2023-01-13T06:39:30;8.20;99.90
70550;DHT22;58101;48.658;2.328;2023-01-13T06:41:57;8.20;99.90
70550;DHT22;58101;48.658;2.328;2023-01-13T06:44:43;8.20;99.90
70550;DHT22;58101;48.658;2.328;2023-01-13T06:47:09;8.10;99.90
70550;DHT22;58101;48.658;2.328;2023-01-13T06:49:35;8.10;99.90
70550;DHT22;58101;48.658;2.328;2023-01-13T06:52:00;8.10;99.90
70550;DHT22;58101;48.658;2.328;2023-01-13T06:54:26;8.10;99.90
70550;DHT22;58101;48.658;2.328;2023-01-13T06:56:52;8.10;99.90
70550;DHT22;58101;48.658;2.328;2023-01-13T06:59:17;8.00;99.90
70550;DHT22;58101;48.658;2.328;2023-01-13T07:01:43;8.00;99.90
70550;DHT22;58101;48.658;2.328;2023-01-13T07:04:09;8.20;99.90
70550;DHT22;58101;48.658;2.328;2023-01-13T07:06:34;8.00;99.90
70550;DHT22;58101;48.658;2.328;2023-01-13T07:09:00;8.00;99.90
70550;DHT22;58101;48.658;2.328;2023-01-13T07:11:26;8.00;99.90
70550;DHT22;58101;48.658;2.328;2023-01-13T07:13:51;8.00;99.90
70550;DHT22;58101;48.658;2.328;2023-01-13T07:16:35;8.00;99.90
70550;DHT22;58101;48.658;2.328;2023-01-13T07:19:01;8.00;99.90
70550;DHT22;58101;48.658;2.328;2023-01-13T07:21:26;8.10;99.90
70550;DHT22;58101;48.658;2.328;2023-01-13T07:23:52;8.10;99.90
70550;DHT22;58101;48.658;2.328;2023-01-13T07:26:18;8.10;99.90
70550;DHT22;58101;48.658;2.328;2023-01-13T07:28:43;8.20;99.90
70550;DHT22;58101;48.658;2.328;2023-01-13T07:31:14;8.20;99.90
70550;DHT22;58101;48.658;2.328;2023-01-13T07:33:40;8.20;99.90
70550;DHT22;58101;48.658;2.328;2023-01-13T07:36:09;8.20;99.90
70550;DHT22;58101;48.658;2.328;2023-01-13T07:38:35;8.20;99.90
70550;DHT22;58101;48.658;2.328;2023-01-13T07:41:02;8.30;99.90
70550;DHT22;58101;48.658;2.328;2023-01-13T07:43:48;8.10;99.90
70550;DHT22;58101;48.658;2.328;2023-01-13T07:46:14;8.20;99.90
70550;DHT22;58101;48.658;2.328;2023-01-13T07:48:40;8.00;99.90
70550;DHT22;58101;48.658;2.328;2023-01-13T07:51:10;8.00;99.90
70550;DHT22;58101;48.658;2.328;2023-01-13T07:53:36;8.00;99.90
70550;DHT22;58101;48.658;2.328;2023-01-13T07:56:04;8.00;99.90
70550;DHT22;58101;48.658;2.328;2023-01-13T07:58:32;8.00;99.90
70550;DHT22;58101;48.658;2.328;2023-01-13T08:00:58;8.00;99.90
70550;DHT22;58101;48.658;2.328;2023-01-13T08:03:24;8.00;99.90
70550;DHT22;58101;48.658;2.328;2023-01-13T08:05:51;8.00;99.90
70550;DHT22;58101;48.658;2.328;2023-01-13T08:08:16;8.00;99.90
70550;DHT22;58101;48.658;2.328;2023-01-13T08:10:42;8.00;99.90
70550;DHT22;58101;48.658;2.328;2023-01-13T08:13:18;8.00;99.90
70550;DHT22;58101;48.658;2.328;2023-01-13T08:15:51;8.00;99.90
70550;DHT22;58101;48.658;2.328;2023-01-13T08:18:18;8.10;99.90
70550;DHT22;58101;48.658;2.328;2023-01-13T08:20:47;8.20;99.90
70550;DHT22;58101;48.658;2.328;2023-01-13T08:23:13;8.20;99.90
70550;DHT22;58101;48.658;2.328;2023-01-13T08:25:39;8.20;99.90
70550;DHT22;58101;48.658;2.328;2023-01-13T08:28:05;8.40;99.90
70550;DHT22;58101;48.658;2.328;2023-01-13T08:30:31;8.30;99.90
70550;DHT22;58101;48.658;2.328;2023-01-13T08:32:56;8.30;99.90
70550;DHT22;58101;48.658;2.328;2023-01-13T08:35:22;8.40;99.90
70550;DHT22;58101;48.658;2.328;2023-01-13T08:37:48;8.40;99.90
70550;DHT22;58101;48.658;2.328;2023-01-13T08:40:15;8.50;99.90
70550;DHT22;58101;48.658;2.328;2023-01-13T08:42:41;8.60;99.90
70550;DHT22;58101;48.658;2.328;2023-01-13T08:45:07;8.60;99.90
70550;DHT22;58101;48.658;2.328;2023-01-13T08:47:33;8.70;99.90
70550;DHT22;58101;48.658;2.328;2023-01-13T08:49:59;8.80;99.90
70550;DHT22;58101;48.658;2.328;2023-01-13T08:52:25;9.10;99.90
70550;DHT22;58101;48.658;2.328;2023-01-13T08:54:50;8.90;99.90
70550;DHT22;58101;48.658;2.328;2023-01-13T08:57:16;9.00;99.90
70550;DHT22;58101;48.658;2.328;2023-01-13T08:59:44;9.00;99.90
70550;DHT22;58101;48.658;2.328;2023-01-13T09:02:18;9.10;99.90
70550;DHT22;58101;48.658;2.328;2023-01-13T09:04:45;9.20;99.90
70550;DHT22;58101;48.658;2.328;2023-01-13T09:07:11;9.70;99.90
70550;DHT22;58101;48.658;2.328;2023-01-13T09:09:37;10.40;99.90
70550;DHT22;58101;48.658;2.328;2023-01-13T09:12:03;10.50;99.90
70550;DHT22;58101;48.658;2.328;2023-01-13T09:14:48;11.00;99.90
70550;DHT22;58101;48.658;2.328;2023-01-13T09:17:14;11.70;99.90
70550;DHT22;58101;48.658;2.328;2023-01-13T09:19:40;12.40;99.90
70550;DHT22;58101;48.658;2.328;2023-01-13T09:22:06;12.80;99.90
70550;DHT22;58101;48.658;2.328;2023-01-13T09:24:32;13.10;99.90
70550;DHT22;58101;48.658;2.328;2023-01-13T09:26:57;13.10;99.90
70550;DHT22;58101;48.658;2.328;2023-01-13T09:29:23;13.20;98.70
70550;DHT22;58101;48.658;2.328;2023-01-13T09:31:49;13.30;99.90
70550;DHT22;58101;48.658;2.328;2023-01-13T09:34:17;13.60;95.70
70550;DHT22;58101;48.658;2.328;2023-01-13T09:37:02;13.70;98.10
70550;DHT22;58101;48.658;2.328;2023-01-13T09:39:28;14.90;90.80
70550;DHT22;58101;48.658;2.328;2023-01-13T09:41:56;15.30;83.40
70550;DHT22;58101;48.658;2.328;2023-01-13T09:47:16;14.50;83.40
70550;DHT22;58101;48.658;2.328;2023-01-13T09:49:44;13.80;89.80
70550;DHT22;58101;48.658;2.328;2023-01-13T09:52:19;13.30;91.80
70550;DHT22;58101;48.658;2.328;2023-01-13T09:54:52;12.50;99.90
70550;DHT22;58101;48.658;2.328;2023-01-13T09:57:20;12.20;99.90
70550;DHT22;58101;48.658;2.328;2023-01-13T09:59:46;11.80;99.90
70550;DHT22;58101;48.658;2.328;2023-01-13T10:07:58;11.10;99.90
70550;DHT22;58101;48.658;2.328;2023-01-13T10:10:53;11.00;99.90
70550;DHT22;58101;48.658;2.328;2023-01-13T10:13:27;10.90;99.90
70550;DHT22;58101;48.658;2.328;2023-01-13T10:18:54;11.50;99.90
70550;DHT22;58101;48.658;2.328;2023-01-13T10:26:52;11.50;99.90
70550;DHT22;58101;48.658;2.328;2023-01-13T10:29:27;11.60;99.90
70550;DHT22;58101;48.658;2.328;2023-01-13T10:31:54;11.60;99.90
70550;DHT22;58101;48.658;2.328;2023-01-13T10:34:21;11.30;99.90
70550;DHT22;58101;48.658;2.328;2023-01-13T10:37:01;10.90;99.90
70550;DHT22;58101;48.658;2.328;2023-01-13T10:39:44;10.60;99.90
70550;DHT22;58101;48.658;2.328;2023-01-13T10:42:18;10.50;99.90
70550;DHT22;58101;48.658;2.328;2023-01-13T10:44:57;10.10;99.90
70550;DHT22;58101;48.658;2.328;2023-01-13T10:47:31;9.90;99.90
70550;DHT22;58101;48.658;2.328;2023-01-13T10:50:21;9.90;99.90
70550;DHT22;58101;48.658;2.328;2023-01-13T10:53:02;10.80;99.90
70550;DHT22;58101;48.658;2.328;2023-01-13T10:55:30;12.50;99.90
70550;DHT22;58101;48.658;2.328;2023-01-13T10:58:11;13.80;99.90
70550;DHT22;58101;48.658;2.328;2023-01-13T11:00:38;14.60;98.10
70550;DHT22;58101;48.658;2.328;2023-01-13T11:03:16;15.00;94.10
70550;DHT22;58101;48.658;2.328;2023-01-13T11:08:20;16.90;79.60
70550;DHT22;58101;48.658;2.328;2023-01-13T11:10:48;17.50;74.60
70550;DHT22;58101;48.658;2.328;2023-01-13T11:13:24;17.80;69.80
70550;DHT22;58101;48.658;2.328;2023-01-13T11:15:53;17.40;66.80
70550;DHT22;58101;48.658;2.328;2023-01-13T11:18:42;17.50;68.80
70550;DHT22;58101;48.658;2.328;2023-01-13T11:21:38;17.10;66.20
70550;DHT22;58101;48.658;2.328;2023-01-13T11:27:00;16.10;70.00
70550;DHT22;58101;48.658;2.328;2023-01-13T11:32:22;15.00;72.40
70550;DHT22;58101;48.658;2.328;2023-01-13T11:34:59;14.10;77.30
70550;DHT22;58101;48.658;2.328;2023-01-13T11:37:36;13.40;84.40
70550;DHT22;58101;48.658;2.328;2023-01-13T11:42:39;14.10;90.20
70550;DHT22;58101;48.658;2.328;2023-01-13T11:47:56;13.30;81.60
70550;DHT22;58101;48.658;2.328;2023-01-13T11:56:30;13.00;95.40
70550;DHT22;58101;48.658;2.328;2023-01-13T12:07:03;17.60;63.40
70550;DHT22;58101;48.658;2.328;2023-01-13T12:09:46;17.70;63.00
70550;DHT22;58101;48.658;2.328;2023-01-13T12:18:19;17.60;58.70
70550;DHT22;58101;48.658;2.328;2023-01-13T12:21:20;17.10;59.60
70550;DHT22;58101;48.658;2.328;2023-01-13T12:26:33;16.00;63.50
70550;DHT22;58101;48.658;2.328;2023-01-13T12:29:02;15.20;64.80
70550;DHT22;58101;48.658;2.328;2023-01-13T12:31:29;14.60;66.80
70550;DHT22;58101;48.658;2.328;2023-01-13T12:34:21;14.00;70.50
70550;DHT22;58101;48.658;2.328;2023-01-13T12:45:18;12.90;77.50
70550;DHT22;58101;48.658;2.328;2023-01-13T12:47:45;12.60;78.70
70550;DHT22;58101;48.658;2.328;2023-01-13T12:56:00;12.50;86.40
70550;DHT22;58101;48.658;2.328;2023-01-13T12:58:39;12.60;81.60
70550;DHT22;58101;48.658;2.328;2023-01-13T13:01:12;12.60;85.60
70550;DHT22;58101;48.658;2.328;2023-01-13T13:03:38;13.00;83.20
70550;DHT22;58101;48.658;2.328;2023-01-13T13:06:20;13.00;77.80
70550;DHT22;58101;48.658;2.328;2023-01-13T13:09:25;12.70;76.20
70550;DHT22;58101;48.658;2.328;2023-01-13T13:11:53;12.70;79.40
70550;DHT22;58101;48.658;2.328;2023-01-13T13:17:03;12.90;78.40
70550;DHT22;58101;48.658;2.328;2023-01-13T13:29:59;13.90;70.90
70550;DHT22;58101;48.658;2.328;2023-01-13T13:41:20;12.60;74.60
70550;DHT22;58101;48.658;2.328;2023-01-13T13:44:14;12.40;78.70
70550;DHT22;58101;48.658;2.328;2023-01-13T13:47:02;12.30;77.50
70550;DHT22;58101;48.658;2.328;2023-01-13T13:49:51;12.10;76.90
70550;DHT22;58101;48.658;2.328;2023-01-13T13:55:25;11.80;79.60
70550;DHT22;58101;48.658;2.328;2023-01-13T13:57:53;11.90;81.70
70550;DHT22;58101;48.658;2.328;2023-01-13T14:00:30;11.70;82.30
70550;DHT22;58101;48.658;2.328;2023-01-13T14:03:03;11.60;82.10
70550;DHT22;58101;48.658;2.328;2023-01-13T14:05:32;11.50;80.20
70550;DHT22;58101;48.658;2.328;2023-01-13T14:08:16;11.40;81.20
70550;DHT22;58101;48.658;2.328;2023-01-13T14:10:44;11.50;81.90
70550;DHT22;58101;48.658;2.328;2023-01-13T14:13:20;11.70;82.30
70550;DHT22;58101;48.658;2.328;2023-01-13T14:15:49;11.80;82.00
70550;DHT22;58101;48.658;2.328;2023-01-13T14:18:19;11.70;81.70
70550;DHT22;58101;48.658;2.328;2023-01-13T14:23:27;11.70;81.20
70550;DHT22;58101;48.658;2.328;2023-01-13T14:25:53;11.70;82.40
70550;DHT22;58101;48.658;2.328;2023-01-13T14:28:25;11.60;82.30
70550;DHT22;58101;48.658;2.328;2023-01-13T14:30:53;11.60;84.60
70550;DHT22;58101;48.658;2.328;2023-01-13T14:33:21;11.60;84.50
70550;DHT22;58101;48.658;2.328;2023-01-13T14:36:16;11.50;83.30
70550;DHT22;58101;48.658;2.328;2023-01-13T14:46:49;11.20;88.10
70550;DHT22;58101;48.658;2.328;2023-01-13T14:52:03;11.10;91.30
70550;DHT22;58101;48.658;2.328;2023-01-13T14:57:27;11.10;92.00
70550;DHT22;58101;48.658;2.328;2023-01-13T15:02:43;10.90;93.60
70550;DHT22;58101;48.658;2.328;2023-01-13T15:07:56;10.80;98.30
70550;DHT22;58101;48.658;2.328;2023-01-13T15:12:51;10.70;99.90
70550;DHT22;58101;48.658;2.328;2023-01-13T15:17:52;10.50;99.90
70550;DHT22;58101;48.658;2.328;2023-01-13T15:20:20;10.40;99.90
70550;DHT22;58101;48.658;2.328;2023-01-13T15:22:46;10.40;99.90
70550;DHT22;58101;48.658;2.328;2023-01-13T15:25:13;10.30;99.90
70550;DHT22;58101;48.658;2.328;2023-01-13T15:27:40;10.20;99.90
70550;DHT22;58101;48.658;2.328;2023-01-13T15:30:20;10.20;99.90
70550;DHT22;58101;48.658;2.328;2023-01-13T15:32:46;10.20;99.90
70550;DHT22;58101;48.658;2.328;2023-01-13T15:35:14;10.10;99.90
70550;DHT22;58101;48.658;2.328;2023-01-13T15:37:40;10.10;99.90
70550;DHT22;58101;48.658;2.328;2023-01-13T15:40:14;10.00;99.90
70550;DHT22;58101;48.658;2.328;2023-01-13T15:42:40;10.00;99.90
70550;DHT22;58101;48.658;2.328;2023-01-13T15:45:24;9.90;99.90
70550;DHT22;58101;48.658;2.328;2023-01-13T15:48:08;10.10;99.90
70550;DHT22;58101;48.658;2.328;2023-01-13T15:50:34;9.90;99.90
70550;DHT22;58101;48.658;2.328;2023-01-13T15:53:00;10.00;99.90
70550;DHT22;58101;48.658;2.328;2023-01-13T15:55:25;9.90;99.90
70550;DHT22;58101;48.658;2.328;2023-01-13T15:57:51;9.90;99.90
70550;DHT22;58101;48.658;2.328;2023-01-13T16:00:20;9.80;99.90
70550;DHT22;58101;48.658;2.328;2023-01-13T16:02:50;9.90;99.90
70550;DHT22;58101;48.658;2.328;2023-01-13T16:05:16;9.90;99.90
70550;DHT22;58101;48.658;2.328;2023-01-13T16:07:41;9.90;99.90
70550;DHT22;58101;48.658;2.328;2023-01-13T16:10:16;9.90;99.90
70550;DHT22;58101;48.658;2.328;2023-01-13T16:12:44;9.90;99.90
70550;DHT22;58101;48.658;2.328;2023-01-13T16:15:15;9.90;99.90
70550;DHT22;58101;48.658;2.328;2023-01-13T16:17:52;9.90;99.90
70550;DHT22;58101;48.658;2.328;2023-01-13T16:20:18;9.90;99.90
70550;DHT22;58101;48.658;2.328;2023-01-13T16:22:44;9.90;99.90
70550;DHT22;58101;48.658;2.328;2023-01-13T16:25:20;9.80;99.90
70550;DHT22;58101;48.658;2.328;2023-01-13T16:27:46;9.80;99.90
70550;DHT22;58101;48.658;2.328;2023-01-13T16:32:48;9.70;99.90
70550;DHT22;58101;48.658;2.328;2023-01-13T16:35:13;9.70;99.90
70550;DHT22;58101;48.658;2.328;2023-01-13T16:37:39;9.70;99.90
70550;DHT22;58101;48.658;2.328;2023-01-13T16:40:05;9.70;99.90
70550;DHT22;58101;48.658;2.328;2023-01-13T16:42:31;9.60;99.90
70550;DHT22;58101;48.658;2.328;2023-01-13T16:44:56;9.60;99.90
70550;DHT22;58101;48.658;2.328;2023-01-13T16:47:23;9.40;99.90
70550;DHT22;58101;48.658;2.328;2023-01-13T16:49:49;9.40;99.90
70550;DHT22;58101;48.658;2.328;2023-01-13T16:52:14;9.30;99.90
70550;DHT22;58101;48.658;2.328;2023-01-13T16:54:40;9.50;99.90
70550;DHT22;58101;48.658;2.328;2023-01-13T16:57:06;9.30;99.90
70550;DHT22;58101;48.658;2.328;2023-01-13T16:59:32;9.30;99.90
70550;DHT22;58101;48.658;2.328;2023-01-13T17:01:57;9.20;99.90
70550;DHT22;58101;48.658;2.328;2023-01-13T17:04:23;9.00;99.90
70550;DHT22;58101;48.658;2.328;2023-01-13T17:09:17;9.20;99.90
70550;DHT22;58101;48.658;2.328;2023-01-13T17:11:43;9.00;99.90
70550;DHT22;58101;48.658;2.328;2023-01-13T17:14:09;8.90;99.90
70550;DHT22;58101;48.658;2.328;2023-01-13T17:16:35;8.90;99.90
70550;DHT22;58101;48.658;2.328;2023-01-13T17:19:01;8.80;99.90
70550;DHT22;58101;48.658;2.328;2023-01-13T17:21:26;8.80;99.90
70550;DHT22;58101;48.658;2.328;2023-01-13T17:23:52;8.70;99.90
70550;DHT22;58101;48.658;2.328;2023-01-13T17:28:52;8.70;99.90
70550;DHT22;58101;48.658;2.328;2023-01-13T17:31:17;8.70;99.90
70550;DHT22;58101;48.658;2.328;2023-01-13T17:33:43;8.70;99.90
70550;DHT22;58101;48.658;2.328;2023-01-13T17:36:08;8.70;99.90
70550;DHT22;58101;48.658;2.328;2023-01-13T17:38:34;8.70;99.90
70550;DHT22;58101;48.658;2.328;2023-01-13T17:41:01;8.70;99.90
70550;DHT22;58101;48.658;2.328;2023-01-13T17:43:29;8.60;99.90
70550;DHT22;58101;48.658;2.328;2023-01-13T17:45:54;8.60;99.90
70550;DHT22;58101;48.658;2.328;2023-01-13T17:48:21;8.60;99.90
70550;DHT22;58101;48.658;2.328;2023-01-13T17:50:47;8.60;99.90
70550;DHT22;58101;48.658;2.328;2023-01-13T17:53:14;8.60;99.90
70550;DHT22;58101;48.658;2.328;2023-01-13T17:55:40;8.60;99.90
70550;DHT22;58101;48.658;2.328;2023-01-13T17:58:05;8.50;99.90
70550;DHT22;58101;48.658;2.328;2023-01-13T18:00:31;8.50;99.90
70550;DHT22;58101;48.658;2.328;2023-01-13T18:02:58;8.50;99.90
70550;DHT22;58101;48.658;2.328;2023-01-13T18:05:23;8.50;99.90
70550;DHT22;58101;48.658;2.328;2023-01-13T18:07:50;8.50;99.90
70550;DHT22;58101;48.658;2.328;2023-01-13T18:10:15;8.70;99.90
70550;DHT22;58101;48.658;2.328;2023-01-13T18:12:41;8.50;99.90
70550;DHT22;58101;48.658;2.328;2023-01-13T18:15:07;8.50;99.90
70550;DHT22;58101;48.658;2.328;2023-01-13T18:17:33;8.50;99.90
70550;DHT22;58101;48.658;2.328;2023-01-13T18:19:58;8.50;99.90
70550;DHT22;58101;48.658;2.328;2023-01-13T18:22:43;8.50;99.90
70550;DHT22;58101;48.658;2.328;2023-01-13T18:25:27;8.50;99.90
70550;DHT22;58101;48.658;2.328;2023-01-13T18:28:11;8.50;99.90
70550;DHT22;58101;48.658;2.328;2023-01-13T18:30:36;8.50;99.90
70550;DHT22;58101;48.658;2.328;2023-01-13T18:33:02;8.60;99.90
70550;DHT22;58101;48.658;2.328;2023-01-13T18:35:27;8.70;99.90
70550;DHT22;58101;48.658;2.328;2023-01-13T18:37:54;8.50;99.90